Rea, Pennsylvania
Current Conditions -  °F | °C
As of 5:35 PM on Tuesday 21 Oct 2014 (Local Time) from KAFJ Reporting Station
Overcast Overcast  
Wind Chill: 44°   Ceiling: 1400
Heat Index: 48°   Visibility: 7mi
Dew Point: 45°   Wind: 9mph
Humidity: 87%   Direction: 340°NNW
Pressure: 29.96"   Gusts: NA
Location:  40.2708°N, 80.4485°W
Report Text: KAFJ 212135Z AUTO 34008KT 7SM BKN014 OVC020 09/07 A2996 RMK AO1
Loading
Personal Weather Stations






























Interactive Weather Map
Tropical Storm Tracking
New forecast layout! Learn more

10-Day Weather Forecast

Advertisements
Track Severe Weather on mobile